Sunnyside, Pennsylvania
Current Conditions -  °F | °C
As of 10:53 PM on Saturday 25 Oct 2014 (Local Time) from KSEG Reporting Station
Broken Clouds Broken Clouds  
Wind Chill: 61°   Ceiling: 9000
Heat Index: 61°   Visibility: 10mi
Dew Point: 48°   Wind: 7mph
Humidity: 62%   Direction: 220°SW
Pressure: 29.64"   Gusts: NA
Location:  40.7842°N, 76.5797°W
Report Text: KSEG 260253Z AUTO 22006KT 10SM BKN090 16/09 A2964 RMK AO2 SLP037 T01610089 56007
Loading
Personal Weather Stations






























Interactive Weather Map
Tropical Storm Tracking
New forecast layout! Learn more

10-Day Weather Forecast

Advertisements
Track Severe Weather on mobile